sensor_id;sensor_type;location;lat;lon;timestamp;P1;durP1;ratioP1;P2;durP2;ratioP2
25609;SDS011;13479;49.044;8.716;2022-07-22T04:15:48;11.70;;;8.23;;
25609;SDS011;13479;49.044;8.716;2022-07-22T04:18:13;12.35;;;8.43;;
25609;SDS011;13479;49.044;8.716;2022-07-22T04:20:40;13.05;;;8.27;;
25609;SDS011;13479;49.044;8.716;2022-07-22T04:23:05;14.30;;;9.40;;
25609;SDS011;13479;49.044;8.716;2022-07-22T04:25:31;10.55;;;8.73;;
25609;SDS011;13479;49.044;8.716;2022-07-22T04:27:56;13.68;;;8.95;;
25609;SDS011;13479;49.044;8.716;2022-07-22T04:30:21;14.65;;;8.30;;
25609;SDS011;13479;49.044;8.716;2022-07-22T04:32:47;11.98;;;8.90;;
25609;SDS011;13479;49.044;8.716;2022-07-22T04:35:12;10.07;;;7.50;;
25609;SDS011;13479;49.044;8.716;2022-07-22T04:37:37;11.85;;;8.02;;
25609;SDS011;13479;49.044;8.716;2022-07-22T04:40:03;10.90;;;7.22;;
25609;SDS011;13479;49.044;8.716;2022-07-22T04:42:29;12.75;;;8.07;;
25609;SDS011;13479;49.044;8.716;2022-07-22T04:44:54;12.38;;;8.48;;
25609;SDS011;13479;49.044;8.716;2022-07-22T04:47:19;13.20;;;8.40;;
25609;SDS011;13479;49.044;8.716;2022-07-22T04:49:45;13.90;;;8.05;;
25609;SDS011;13479;49.044;8.716;2022-07-22T04:52:10;11.90;;;7.72;;
25609;SDS011;13479;49.044;8.716;2022-07-22T04:54:35;10.60;;;8.98;;
25609;SDS011;13479;49.044;8.716;2022-07-22T04:57:01;16.20;;;8.82;;
25609;SDS011;13479;49.044;8.716;2022-07-22T04:59:26;12.52;;;8.65;;
25609;SDS011;13479;49.044;8.716;2022-07-22T05:01:51;12.60;;;8.27;;
25609;SDS011;13479;49.044;8.716;2022-07-22T05:04:16;12.82;;;8.68;;
25609;SDS011;13479;49.044;8.716;2022-07-22T05:06:42;12.38;;;8.75;;
25609;SDS011;13479;49.044;8.716;2022-07-22T05:09:07;12.20;;;7.82;;
25609;SDS011;13479;49.044;8.716;2022-07-22T05:11:32;12.68;;;8.57;;
25609;SDS011;13479;49.044;8.716;2022-07-22T05:13:57;9.60;;;7.63;;
25609;SDS011;13479;49.044;8.716;2022-07-22T05:16:23;10.98;;;7.72;;
25609;SDS011;13479;49.044;8.716;2022-07-22T05:18:48;10.85;;;7.45;;
25609;SDS011;13479;49.044;8.716;2022-07-22T05:21:13;11.23;;;7.40;;
25609;SDS011;13479;49.044;8.716;2022-07-22T05:23:38;14.15;;;8.15;;
25609;SDS011;13479;49.044;8.716;2022-07-22T05:26:04;11.15;;;7.97;;
25609;SDS011;13479;49.044;8.716;2022-07-22T05:28:30;13.90;;;7.63;;
25609;SDS011;13479;49.044;8.716;2022-07-22T05:30:55;11.55;;;6.25;;
25609;SDS011;13479;49.044;8.716;2022-07-22T05:33:20;12.65;;;7.63;;
25609;SDS011;13479;49.044;8.716;2022-07-22T05:35:45;10.40;;;7.25;;
25609;SDS011;13479;49.044;8.716;2022-07-22T05:38:11;11.50;;;7.07;;
25609;SDS011;13479;49.044;8.716;2022-07-22T05:40:36;11.30;;;6.28;;
25609;SDS011;13479;49.044;8.716;2022-07-22T05:43:01;9.98;;;6.30;;
25609;SDS011;13479;49.044;8.716;2022-07-22T05:45:27;10.57;;;5.47;;
25609;SDS011;13479;49.044;8.716;2022-07-22T05:47:52;8.40;;;5.68;;
25609;SDS011;13479;49.044;8.716;2022-07-22T05:50:17;7.60;;;5.70;;
25609;SDS011;13479;49.044;8.716;2022-07-22T05:52:42;7.78;;;5.80;;
25609;SDS011;13479;49.044;8.716;2022-07-22T05:55:08;11.13;;;6.43;;
25609;SDS011;13479;49.044;8.716;2022-07-22T05:57:35;9.32;;;5.97;;
25609;SDS011;13479;49.044;8.716;2022-07-22T06:00:00;10.00;;;5.40;;
25609;SDS011;13479;49.044;8.716;2022-07-22T06:02:25;8.90;;;6.13;;
25609;SDS011;13479;49.044;8.716;2022-07-22T06:04:51;8.50;;;5.90;;
25609;SDS011;13479;49.044;8.716;2022-07-22T06:07:16;6.38;;;4.95;;
25609;SDS011;13479;49.044;8.716;2022-07-22T06:09:42;6.70;;;5.10;;
25609;SDS011;13479;49.044;8.716;2022-07-22T06:12:07;8.93;;;5.30;;
25609;SDS011;13479;49.044;8.716;2022-07-22T06:14:33;6.78;;;5.38;;
25609;SDS011;13479;49.044;8.716;2022-07-22T06:16:59;7.45;;;5.03;;
25609;SDS011;13479;49.044;8.716;2022-07-22T06:19:24;7.32;;;5.22;;
25609;SDS011;13479;49.044;8.716;2022-07-22T06:21:49;8.68;;;5.35;;
25609;SDS011;13479;49.044;8.716;2022-07-22T06:24:15;10.25;;;5.00;;
25609;SDS011;13479;49.044;8.716;2022-07-22T06:26:40;8.90;;;5.47;;
25609;SDS011;13479;49.044;8.716;2022-07-22T06:29:06;5.85;;;4.68;;
25609;SDS011;13479;49.044;8.716;2022-07-22T06:31:31;7.00;;;5.00;;
25609;SDS011;13479;49.044;8.716;2022-07-22T06:33:56;7.18;;;5.25;;
25609;SDS011;13479;49.044;8.716;2022-07-22T06:36:21;6.85;;;4.50;;
25609;SDS011;13479;49.044;8.716;2022-07-22T06:38:47;7.18;;;5.03;;
25609;SDS011;13479;49.044;8.716;2022-07-22T06:41:12;7.30;;;4.70;;
25609;SDS011;13479;49.044;8.716;2022-07-22T06:43:38;5.90;;;4.63;;
25609;SDS011;13479;49.044;8.716;2022-07-22T06:46:04;9.15;;;5.45;;
25609;SDS011;13479;49.044;8.716;2022-07-22T06:48:29;8.00;;;5.30;;
25609;SDS011;13479;49.044;8.716;2022-07-22T06:50:54;9.52;;;4.57;;
25609;SDS011;13479;49.044;8.716;2022-07-22T06:53:20;7.68;;;5.20;;
25609;SDS011;13479;49.044;8.716;2022-07-22T06:55:46;11.60;;;5.50;;
25609;SDS011;13479;49.044;8.716;2022-07-22T06:58:11;9.27;;;4.95;;
25609;SDS011;13479;49.044;8.716;2022-07-22T07:00:36;11.30;;;5.47;;
25609;SDS011;13479;49.044;8.716;2022-07-22T07:03:02;8.30;;;5.50;;
25609;SDS011;13479;49.044;8.716;2022-07-22T07:05:27;6.90;;;5.25;;
25609;SDS011;13479;49.044;8.716;2022-07-22T07:07:53;8.00;;;5.57;;
25609;SDS011;13479;49.044;8.716;2022-07-22T07:10:19;8.43;;;5.40;;
25609;SDS011;13479;49.044;8.716;2022-07-22T07:12:45;7.35;;;5.43;;
25609;SDS011;13479;49.044;8.716;2022-07-22T07:15:10;6.35;;;5.22;;
25609;SDS011;13479;49.044;8.716;2022-07-22T07:17:36;6.82;;;4.38;;
25609;SDS011;13479;49.044;8.716;2022-07-22T07:20:02;7.97;;;5.05;;
25609;SDS011;13479;49.044;8.716;2022-07-22T07:22:29;7.57;;;4.55;;
25609;SDS011;13479;49.044;8.716;2022-07-22T07:24:54;7.20;;;4.60;;
25609;SDS011;13479;49.044;8.716;2022-07-22T07:27:19;5.45;;;4.35;;
25609;SDS011;13479;49.044;8.716;2022-07-22T07:29:44;5.32;;;4.63;;
25609;SDS011;13479;49.044;8.716;2022-07-22T07:32:10;6.93;;;4.25;;
25609;SDS011;13479;49.044;8.716;2022-07-22T07:34:36;5.40;;;4.20;;
25609;SDS011;13479;49.044;8.716;2022-07-22T07:37:01;5.97;;;3.92;;
25609;SDS011;13479;49.044;8.716;2022-07-22T07:39:26;6.25;;;4.35;;
25609;SDS011;13479;49.044;8.716;2022-07-22T07:41:52;6.13;;;4.07;;
25609;SDS011;13479;49.044;8.716;2022-07-22T07:44:17;5.30;;;3.88;;
25609;SDS011;13479;49.044;8.716;2022-07-22T07:46:43;6.97;;;4.30;;
25609;SDS011;13479;49.044;8.716;2022-07-22T07:49:08;5.90;;;4.10;;
25609;SDS011;13479;49.044;8.716;2022-07-22T07:51:34;6.47;;;4.60;;
25609;SDS011;13479;49.044;8.716;2022-07-22T07:53:59;6.47;;;4.57;;
25609;SDS011;13479;49.044;8.716;2022-07-22T07:56:24;6.38;;;4.50;;
25609;SDS011;13479;49.044;8.716;2022-07-22T07:58:49;5.88;;;3.88;;
25609;SDS011;13479;49.044;8.716;2022-07-22T08:01:15;6.70;;;4.82;;
25609;SDS011;13479;49.044;8.716;2022-07-22T08:03:40;6.13;;;4.22;;
25609;SDS011;13479;49.044;8.716;2022-07-22T08:06:05;5.70;;;4.22;;
25609;SDS011;13479;49.044;8.716;2022-07-22T08:08:31;5.85;;;4.38;;
25609;SDS011;13479;49.044;8.716;2022-07-22T08:10:56;10.90;;;4.75;;
25609;SDS011;13479;49.044;8.716;2022-07-22T08:13:21;6.72;;;4.50;;
25609;SDS011;13479;49.044;8.716;2022-07-22T08:15:47;5.32;;;4.38;;
25609;SDS011;13479;49.044;8.716;2022-07-22T08:18:12;9.88;;;4.70;;
25609;SDS011;13479;49.044;8.716;2022-07-22T08:20:37;6.07;;;4.63;;
25609;SDS011;13479;49.044;8.716;2022-07-22T08:23:03;7.47;;;4.22;;
25609;SDS011;13479;49.044;8.716;2022-07-22T08:25:28;6.65;;;4.43;;
25609;SDS011;13479;49.044;8.716;2022-07-22T08:27:54;9.43;;;4.45;;
25609;SDS011;13479;49.044;8.716;2022-07-22T08:30:19;6.63;;;4.25;;
25609;SDS011;13479;49.044;8.716;2022-07-22T08:32:45;6.53;;;4.57;;
25609;SDS011;13479;49.044;8.716;2022-07-22T08:35:11;4.15;;;3.53;;
25609;SDS011;13479;49.044;8.716;2022-07-22T08:37:37;4.95;;;3.92;;
25609;SDS011;13479;49.044;8.716;2022-07-22T08:40:03;6.82;;;3.72;;
25609;SDS011;13479;49.044;8.716;2022-07-22T08:42:29;7.70;;;4.10;;
25609;SDS011;13479;49.044;8.716;2022-07-22T08:44:55;5.80;;;3.83;;
25609;SDS011;13479;49.044;8.716;2022-07-22T08:47:23;5.70;;;4.25;;
25609;SDS011;13479;49.044;8.716;2022-07-22T08:49:49;4.47;;;3.90;;
25609;SDS011;13479;49.044;8.716;2022-07-22T08:52:15;4.95;;;3.90;;
25609;SDS011;13479;49.044;8.716;2022-07-22T08:54:40;6.10;;;4.60;;
25609;SDS011;13479;49.044;8.716;2022-07-22T08:57:05;4.90;;;3.95;;
25609;SDS011;13479;49.044;8.716;2022-07-22T08:59:31;4.80;;;4.07;;
25609;SDS011;13479;49.044;8.716;2022-07-22T09:02:03;6.00;;;4.28;;
25609;SDS011;13479;49.044;8.716;2022-07-22T09:04:30;7.38;;;4.40;;
25609;SDS011;13479;49.044;8.716;2022-07-22T09:06:56;5.57;;;4.25;;
25609;SDS011;13479;49.044;8.716;2022-07-22T09:09:32;7.03;;;4.45;;
25609;SDS011;13479;49.044;8.716;2022-07-22T09:12:07;6.05;;;4.15;;
25609;SDS011;13479;49.044;8.716;2022-07-22T09:14:42;6.05;;;4.10;;
25609;SDS011;13479;49.044;8.716;2022-07-22T09:17:21;6.47;;;3.97;;
25609;SDS011;13479;49.044;8.716;2022-07-22T09:20:02;5.03;;;4.13;;
25609;SDS011;13479;49.044;8.716;2022-07-22T09:22:35;7.47;;;4.28;;
25609;SDS011;13479;49.044;8.716;2022-07-22T09:30:32;5.72;;;3.90;;
25609;SDS011;13479;49.044;8.716;2022-07-22T09:32:59;8.15;;;4.28;;
25609;SDS011;13479;49.044;8.716;2022-07-22T09:35:25;5.72;;;4.07;;
25609;SDS011;13479;49.044;8.716;2022-07-22T09:37:55;5.47;;;3.78;;
25609;SDS011;13479;49.044;8.716;2022-07-22T09:40:26;7.65;;;4.43;;
25609;SDS011;13479;49.044;8.716;2022-07-22T09:42:54;7.65;;;4.25;;
25609;SDS011;13479;49.044;8.716;2022-07-22T09:45:22;6.05;;;4.38;;
25609;SDS011;13479;49.044;8.716;2022-07-22T09:47:49;5.75;;;4.55;;
25609;SDS011;13479;49.044;8.716;2022-07-22T09:50:19;6.00;;;4.60;;
25609;SDS011;13479;49.044;8.716;2022-07-22T09:52:44;10.93;;;4.50;;
25609;SDS011;13479;49.044;8.716;2022-07-22T09:55:12;6.13;;;4.20;;
25609;SDS011;13479;49.044;8.716;2022-07-22T09:57:39;7.82;;;4.45;;
25609;SDS011;13479;49.044;8.716;2022-07-22T10:00:04;8.32;;;4.25;;
25609;SDS011;13479;49.044;8.716;2022-07-22T10:02:33;6.43;;;4.00;;
25609;SDS011;13479;49.044;8.716;2022-07-22T10:05:07;5.18;;;4.00;;
25609;SDS011;13479;49.044;8.716;2022-07-22T10:07:35;6.88;;;4.20;;
25609;SDS011;13479;49.044;8.716;2022-07-22T10:10:02;6.60;;;3.95;;
25609;SDS011;13479;49.044;8.716;2022-07-22T10:12:28;7.07;;;4.30;;
25609;SDS011;13479;49.044;8.716;2022-07-22T10:14:55;5.68;;;4.35;;
25609;SDS011;13479;49.044;8.716;2022-07-22T10:17:21;5.40;;;4.20;;
25609;SDS011;13479;49.044;8.716;2022-07-22T10:19:47;5.55;;;4.10;;
25609;SDS011;13479;49.044;8.716;2022-07-22T10:25:06;6.60;;;4.28;;
25609;SDS011;13479;49.044;8.716;2022-07-22T10:27:43;7.40;;;4.80;;
25609;SDS011;13479;49.044;8.716;2022-07-22T10:30:28;8.77;;;4.35;;
25609;SDS011;13479;49.044;8.716;2022-07-22T10:33:03;6.65;;;4.53;;
25609;SDS011;13479;49.044;8.716;2022-07-22T10:35:31;5.80;;;4.10;;
25609;SDS011;13479;49.044;8.716;2022-07-22T10:37:59;5.47;;;4.15;;
25609;SDS011;13479;49.044;8.716;2022-07-22T10:40:27;6.82;;;4.50;;
25609;SDS011;13479;49.044;8.716;2022-07-22T10:45:30;6.95;;;4.20;;
25609;SDS011;13479;49.044;8.716;2022-07-22T10:47:58;5.82;;;4.15;;
25609;SDS011;13479;49.044;8.716;2022-07-22T10:53:15;6.72;;;4.38;;
25609;SDS011;13479;49.044;8.716;2022-07-22T11:01:02;4.95;;;4.00;;
25609;SDS011;13479;49.044;8.716;2022-07-22T11:03:30;7.15;;;3.67;;
25609;SDS011;13479;49.044;8.716;2022-07-22T11:05:56;5.10;;;3.90;;
25609;SDS011;13479;49.044;8.716;2022-07-22T11:08:37;6.45;;;3.90;;
25609;SDS011;13479;49.044;8.716;2022-07-22T11:11:02;6.05;;;4.07;;
25609;SDS011;13479;49.044;8.716;2022-07-22T11:13:31;4.47;;;4.05;;
25609;SDS011;13479;49.044;8.716;2022-07-22T11:16:12;5.75;;;4.40;;
25609;SDS011;13479;49.044;8.716;2022-07-22T11:21:11;6.00;;;4.60;;
25609;SDS011;13479;49.044;8.716;2022-07-22T11:23:41;5.13;;;3.97;;
25609;SDS011;13479;49.044;8.716;2022-07-22T11:26:07;7.15;;;4.30;;
25609;SDS011;13479;49.044;8.716;2022-07-22T11:28:39;7.20;;;4.45;;
25609;SDS011;13479;49.044;8.716;2022-07-22T11:31:08;6.93;;;4.30;;
25609;SDS011;13479;49.044;8.716;2022-07-22T11:33:35;6.15;;;4.35;;
25609;SDS011;13479;49.044;8.716;2022-07-22T11:36:04;7.68;;;4.20;;
25609;SDS011;13479;49.044;8.716;2022-07-22T11:38:44;8.02;;;4.00;;
25609;SDS011;13479;49.044;8.716;2022-07-22T11:41:13;9.02;;;4.60;;
25609;SDS011;13479;49.044;8.716;2022-07-22T11:43:46;7.70;;;4.53;;
25609;SDS011;13479;49.044;8.716;2022-07-22T11:46:13;6.40;;;4.20;;
25609;SDS011;13479;49.044;8.716;2022-07-22T11:48:40;9.05;;;4.70;;
25609;SDS011;13479;49.044;8.716;2022-07-22T11:51:08;8.98;;;4.60;;
25609;SDS011;13479;49.044;8.716;2022-07-22T11:53:37;6.65;;;4.38;;
25609;SDS011;13479;49.044;8.716;2022-07-22T11:56:04;5.97;;;4.50;;
25609;SDS011;13479;49.044;8.716;2022-07-22T11:58:35;7.53;;;4.20;;
25609;SDS011;13479;49.044;8.716;2022-07-22T12:01:00;6.97;;;4.47;;
25609;SDS011;13479;49.044;8.716;2022-07-22T12:03:26;8.75;;;4.55;;
25609;SDS011;13479;49.044;8.716;2022-07-22T12:05:52;5.18;;;4.03;;
25609;SDS011;13479;49.044;8.716;2022-07-22T12:08:18;7.82;;;4.47;;
25609;SDS011;13479;49.044;8.716;2022-07-22T12:10:44;7.05;;;4.25;;
25609;SDS011;13479;49.044;8.716;2022-07-22T12:13:12;8.57;;;4.32;;
25609;SDS011;13479;49.044;8.716;2022-07-22T12:15:40;7.30;;;4.15;;
25609;SDS011;13479;49.044;8.716;2022-07-22T12:18:15;7.65;;;4.25;;
25609;SDS011;13479;49.044;8.716;2022-07-22T12:20:44;6.72;;;4.63;;
25609;SDS011;13479;49.044;8.716;2022-07-22T12:23:10;8.45;;;4.38;;
25609;SDS011;13479;49.044;8.716;2022-07-22T12:25:53;5.90;;;4.47;;
25609;SDS011;13479;49.044;8.716;2022-07-22T12:28:20;6.32;;;4.47;;
25609;SDS011;13479;49.044;8.716;2022-07-22T12:30:45;5.32;;;3.92;;
25609;SDS011;13479;49.044;8.716;2022-07-22T12:33:18;7.22;;;4.18;;
25609;SDS011;13479;49.044;8.716;2022-07-22T12:35:44;7.13;;;4.40;;
25609;SDS011;13479;49.044;8.716;2022-07-22T12:38:30;9.30;;;4.60;;
25609;SDS011;13479;49.044;8.716;2022-07-22T12:40:56;8.60;;;4.50;;
25609;SDS011;13479;49.044;8.716;2022-07-22T12:43:24;6.07;;;4.25;;
25609;SDS011;13479;49.044;8.716;2022-07-22T12:45:50;10.32;;;4.38;;
25609;SDS011;13479;49.044;8.716;2022-07-22T12:48:16;5.25;;;4.50;;
25609;SDS011;13479;49.044;8.716;2022-07-22T12:55:36;5.63;;;4.18;;
25609;SDS011;13479;49.044;8.716;2022-07-22T12:58:03;6.80;;;4.20;;
25609;SDS011;13479;49.044;8.716;2022-07-22T13:00:34;6.25;;;4.40;;
25609;SDS011;13479;49.044;8.716;2022-07-22T13:03:02;5.82;;;4.32;;
25609;SDS011;13479;49.044;8.716;2022-07-22T13:05:27;5.75;;;4.45;;
25609;SDS011;13479;49.044;8.716;2022-07-22T13:07:53;12.93;;;4.10;;
25609;SDS011;13479;49.044;8.716;2022-07-22T13:10:19;8.57;;;4.32;;
25609;SDS011;13479;49.044;8.716;2022-07-22T13:12:48;7.40;;;3.97;;
25609;SDS011;13479;49.044;8.716;2022-07-22T13:15:14;6.75;;;4.00;;
25609;SDS011;13479;49.044;8.716;2022-07-22T13:17:40;7.35;;;4.13;;
25609;SDS011;13479;49.044;8.716;2022-07-22T13:20:06;5.65;;;4.10;;
25609;SDS011;13479;49.044;8.716;2022-07-22T13:22:33;6.55;;;3.95;;
25609;SDS011;13479;49.044;8.716;2022-07-22T13:24:59;10.25;;;4.30;;
25609;SDS011;13479;49.044;8.716;2022-07-22T13:27:24;5.72;;;4.10;;
25609;SDS011;13479;49.044;8.716;2022-07-22T13:29:50;5.60;;;3.90;;
25609;SDS011;13479;49.044;8.716;2022-07-22T13:32:15;8.00;;;4.25;;
25609;SDS011;13479;49.044;8.716;2022-07-22T13:34:40;8.07;;;4.22;;
25609;SDS011;13479;49.044;8.716;2022-07-22T13:37:05;7.60;;;4.20;;
25609;SDS011;13479;49.044;8.716;2022-07-22T13:39:31;8.98;;;4.07;;
25609;SDS011;13479;49.044;8.716;2022-07-22T13:41:56;6.00;;;4.20;;
25609;SDS011;13479;49.044;8.716;2022-07-22T13:44:21;6.63;;;4.40;;
25609;SDS011;13479;49.044;8.716;2022-07-22T13:46:47;7.50;;;4.40;;
25609;SDS011;13479;49.044;8.716;2022-07-22T13:49:13;5.28;;;3.83;;
25609;SDS011;13479;49.044;8.716;2022-07-22T13:51:39;7.72;;;4.10;;
25609;SDS011;13479;49.044;8.716;2022-07-22T13:54:04;6.35;;;4.30;;
25609;SDS011;13479;49.044;8.716;2022-07-22T13:56:30;7.40;;;4.05;;
25609;SDS011;13479;49.044;8.716;2022-07-22T13:58:57;8.48;;;4.10;;
25609;SDS011;13479;49.044;8.716;2022-07-22T14:01:23;7.00;;;4.05;;
25609;SDS011;13479;49.044;8.716;2022-07-22T14:03:48;7.07;;;4.20;;
25609;SDS011;13479;49.044;8.716;2022-07-22T14:06:14;5.60;;;4.18;;
25609;SDS011;13479;49.044;8.716;2022-07-22T14:08:39;5.30;;;3.90;;
25609;SDS011;13479;49.044;8.716;2022-07-22T14:11:04;10.63;;;4.70;;
25609;SDS011;13479;49.044;8.716;2022-07-22T14:13:29;7.35;;;4.32;;
25609;SDS011;13479;49.044;8.716;2022-07-22T14:15:55;8.68;;;3.95;;
25609;SDS011;13479;49.044;8.716;2022-07-22T14:18:20;6.22;;;4.20;;
25609;SDS011;13479;49.044;8.716;2022-07-22T14:20:46;7.10;;;3.90;;
25609;SDS011;13479;49.044;8.716;2022-07-22T14:23:11;5.82;;;4.22;;
25609;SDS011;13479;49.044;8.716;2022-07-22T14:25:38;8.18;;;4.00;;
25609;SDS011;13479;49.044;8.716;2022-07-22T14:28:05;5.05;;;4.13;;
25609;SDS011;13479;49.044;8.716;2022-07-22T14:30:31;7.00;;;3.80;;
25609;SDS011;13479;49.044;8.716;2022-07-22T14:32:58;8.50;;;3.97;;
25609;SDS011;13479;49.044;8.716;2022-07-22T14:35:24;6.88;;;4.45;;
25609;SDS011;13479;49.044;8.716;2022-07-22T14:37:49;6.43;;;4.10;;
25609;SDS011;13479;49.044;8.716;2022-07-22T14:40:14;7.40;;;3.83;;
25609;SDS011;13479;49.044;8.716;2022-07-22T14:42:40;6.20;;;4.15;;
25609;SDS011;13479;49.044;8.716;2022-07-22T14:45:06;10.32;;;4.18;;
25609;SDS011;13479;49.044;8.716;2022-07-22T14:47:34;5.88;;;4.13;;
25609;SDS011;13479;49.044;8.716;2022-07-22T14:49:59;8.00;;;4.07;;
25609;SDS011;13479;49.044;8.716;2022-07-22T14:52:24;7.95;;;4.18;;
25609;SDS011;13479;49.044;8.716;2022-07-22T14:54:49;5.47;;;3.90;;
25609;SDS011;13479;49.044;8.716;2022-07-22T14:57:15;9.63;;;3.75;;
25609;SDS011;13479;49.044;8.716;2022-07-22T14:59:40;9.00;;;4.13;;
25609;SDS011;13479;49.044;8.716;2022-07-22T15:02:05;4.60;;;3.85;;
25609;SDS011;13479;49.044;8.716;2022-07-22T15:04:31;17.08;;;4.10;;
25609;SDS011;13479;49.044;8.716;2022-07-22T15:06:56;6.30;;;4.03;;
25609;SDS011;13479;49.044;8.716;2022-07-22T15:09:22;6.47;;;3.90;;
25609;SDS011;13479;49.044;8.716;2022-07-22T15:11:47;7.40;;;3.88;;
25609;SDS011;13479;49.044;8.716;2022-07-22T15:14:12;6.63;;;3.88;;
25609;SDS011;13479;49.044;8.716;2022-07-22T15:16:37;8.35;;;4.18;;
25609;SDS011;13479;49.044;8.716;2022-07-22T15:19:02;12.23;;;4.35;;
25609;SDS011;13479;49.044;8.716;2022-07-22T15:21:28;5.60;;;3.83;;
25609;SDS011;13479;49.044;8.716;2022-07-22T15:23:53;9.65;;;4.20;;
25609;SDS011;13479;49.044;8.716;2022-07-22T15:26:18;7.45;;;3.60;;
25609;SDS011;13479;49.044;8.716;2022-07-22T15:28:44;8.00;;;3.58;;
25609;SDS011;13479;49.044;8.716;2022-07-22T15:31:12;6.90;;;3.78;;
25609;SDS011;13479;49.044;8.716;2022-07-22T15:33:38;6.40;;;4.05;;
25609;SDS011;13479;49.044;8.716;2022-07-22T15:36:04;8.00;;;3.88;;
25609;SDS011;13479;49.044;8.716;2022-07-22T15:38:30;5.75;;;4.00;;
25609;SDS011;13479;49.044;8.716;2022-07-22T15:40:56;5.97;;;3.90;;
25609;SDS011;13479;49.044;8.716;2022-07-22T15:43:21;5.32;;;4.00;;
25609;SDS011;13479;49.044;8.716;2022-07-22T15:45:47;6.55;;;4.28;;
25609;SDS011;13479;49.044;8.716;2022-07-22T15:48:12;7.88;;;3.83;;
25609;SDS011;13479;49.044;8.716;2022-07-22T15:50:38;6.88;;;4.03;;
25609;SDS011;13479;49.044;8.716;2022-07-22T15:53:03;5.40;;;3.80;;
25609;SDS011;13479;49.044;8.716;2022-07-22T15:55:28;5.07;;;3.88;;
25609;SDS011;13479;49.044;8.716;2022-07-22T15:57:55;5.03;;;3.67;;
25609;SDS011;13479;49.044;8.716;2022-07-22T16:00:38;5.10;;;3.83;;
25609;SDS011;13479;49.044;8.716;2022-07-22T16:03:04;6.15;;;4.20;;
25609;SDS011;13479;49.044;8.716;2022-07-22T16:05:29;7.18;;;4.03;;
25609;SDS011;13479;49.044;8.716;2022-07-22T16:07:54;6.47;;;3.72;;
25609;SDS011;13479;49.044;8.716;2022-07-22T16:10:20;7.63;;;3.75;;
25609;SDS011;13479;49.044;8.716;2022-07-22T16:12:45;7.20;;;4.22;;
25609;SDS011;13479;49.044;8.716;2022-07-22T16:15:10;7.30;;;4.30;;
25609;SDS011;13479;49.044;8.716;2022-07-22T16:17:36;4.88;;;3.97;;
25609;SDS011;13479;49.044;8.716;2022-07-22T16:20:03;4.88;;;3.50;;
25609;SDS011;13479;49.044;8.716;2022-07-22T16:22:32;5.82;;;4.18;;
25609;SDS011;13479;49.044;8.716;2022-07-22T16:24:57;6.63;;;4.00;;
25609;SDS011;13479;49.044;8.716;2022-07-22T16:27:22;6.03;;;3.83;;
25609;SDS011;13479;49.044;8.716;2022-07-22T16:29:47;9.13;;;3.70;;
25609;SDS011;13479;49.044;8.716;2022-07-22T16:32:13;5.43;;;3.58;;
25609;SDS011;13479;49.044;8.716;2022-07-22T16:34:38;6.00;;;3.72;;
25609;SDS011;13479;49.044;8.716;2022-07-22T16:37:03;7.93;;;4.20;;
25609;SDS011;13479;49.044;8.716;2022-07-22T16:39:28;7.78;;;5.22;;
25609;SDS011;13479;49.044;8.716;2022-07-22T16:41:55;5.75;;;3.90;;
25609;SDS011;13479;49.044;8.716;2022-07-22T16:44:20;6.85;;;4.75;;
25609;SDS011;13479;49.044;8.716;2022-07-22T16:46:45;7.97;;;4.60;;
25609;SDS011;13479;49.044;8.716;2022-07-22T16:49:11;6.20;;;4.07;;
25609;SDS011;13479;49.044;8.716;2022-07-22T16:51:36;8.10;;;4.05;;
25609;SDS011;13479;49.044;8.716;2022-07-22T16:54:02;7.88;;;3.97;;
25609;SDS011;13479;49.044;8.716;2022-07-22T16:56:28;7.88;;;4.20;;
25609;SDS011;13479;49.044;8.716;2022-07-22T16:58:53;4.72;;;3.80;;
25609;SDS011;13479;49.044;8.716;2022-07-22T17:01:18;6.97;;;4.07;;
25609;SDS011;13479;49.044;8.716;2022-07-22T17:03:44;8.43;;;4.07;;
25609;SDS011;13479;49.044;8.716;2022-07-22T17:06:09;8.00;;;4.00;;
25609;SDS011;13479;49.044;8.716;2022-07-22T17:08:34;5.82;;;4.28;;
25609;SDS011;13479;49.044;8.716;2022-07-22T17:10:59;5.57;;;4.03;;
25609;SDS011;13479;49.044;8.716;2022-07-22T17:13:25;5.32;;;4.13;;
25609;SDS011;13479;49.044;8.716;2022-07-22T17:15:51;10.20;;;4.25;;
25609;SDS011;13479;49.044;8.716;2022-07-22T17:18:17;6.22;;;4.25;;
25609;SDS011;13479;49.044;8.716;2022-07-22T17:20:42;7.47;;;4.00;;
25609;SDS011;13479;49.044;8.716;2022-07-22T17:23:08;6.53;;;3.78;;
25609;SDS011;13479;49.044;8.716;2022-07-22T17:25:33;7.00;;;4.10;;
25609;SDS011;13479;49.044;8.716;2022-07-22T17:27:58;6.50;;;4.10;;
25609;SDS011;13479;49.044;8.716;2022-07-22T17:30:24;5.70;;;3.70;;
25609;SDS011;13479;49.044;8.716;2022-07-22T17:32:49;10.30;;;4.15;;
25609;SDS011;13479;49.044;8.716;2022-07-22T17:35:14;6.07;;;4.15;;
25609;SDS011;13479;49.044;8.716;2022-07-22T17:37:40;7.00;;;4.03;;
25609;SDS011;13479;49.044;8.716;2022-07-22T17:40:05;5.05;;;4.13;;
25609;SDS011;13479;49.044;8.716;2022-07-22T17:42:31;6.57;;;4.13;;
25609;SDS011;13479;49.044;8.716;2022-07-22T17:44:57;4.80;;;4.10;;
25609;SDS011;13479;49.044;8.716;2022-07-22T17:47:22;6.38;;;4.28;;
25609;SDS011;13479;49.044;8.716;2022-07-22T17:49:47;6.70;;;4.10;;
25609;SDS011;13479;49.044;8.716;2022-07-22T17:52:13;8.27;;;3.95;;
25609;SDS011;13479;49.044;8.716;2022-07-22T17:54:39;7.63;;;4.43;;
25609;SDS011;13479;49.044;8.716;2022-07-22T17:57:04;9.43;;;4.63;;
25609;SDS011;13479;49.044;8.716;2022-07-22T17:59:29;5.55;;;4.13;;
25609;SDS011;13479;49.044;8.716;2022-07-22T18:01:55;7.00;;;4.30;;
25609;SDS011;13479;49.044;8.716;2022-07-22T18:04:20;7.35;;;4.32;;
25609;SDS011;13479;49.044;8.716;2022-07-22T18:06:46;5.55;;;3.90;;
25609;SDS011;13479;49.044;8.716;2022-07-22T18:09:11;10.55;;;4.47;;
25609;SDS011;13479;49.044;8.716;2022-07-22T18:11:36;9.32;;;4.47;;
25609;SDS011;13479;49.044;8.716;2022-07-22T18:14:01;8.65;;;4.40;;
25609;SDS011;13479;49.044;8.716;2022-07-22T18:16:27;9.80;;;4.38;;
25609;SDS011;13479;49.044;8.716;2022-07-22T18:18:52;6.03;;;4.35;;
25609;SDS011;13479;49.044;8.716;2022-07-22T18:21:17;6.88;;;4.47;;
25609;SDS011;13479;49.044;8.716;2022-07-22T18:23:42;7.47;;;4.10;;
25609;SDS011;13479;49.044;8.716;2022-07-22T18:26:08;7.03;;;4.00;;
25609;SDS011;13479;49.044;8.716;2022-07-22T18:28:33;6.53;;;4.30;;
25609;SDS011;13479;49.044;8.716;2022-07-22T18:31:00;7.10;;;4.05;;
25609;SDS011;13479;49.044;8.716;2022-07-22T18:33:25;6.57;;;4.45;;
25609;SDS011;13479;49.044;8.716;2022-07-22T18:35:51;6.90;;;4.18;;
25609;SDS011;13479;49.044;8.716;2022-07-22T18:38:16;4.78;;;4.28;;
25609;SDS011;13479;49.044;8.716;2022-07-22T18:40:41;6.32;;;4.00;;
25609;SDS011;13479;49.044;8.716;2022-07-22T18:43:07;8.57;;;4.70;;
25609;SDS011;13479;49.044;8.716;2022-07-22T18:45:32;5.78;;;4.20;;
25609;SDS011;13479;49.044;8.716;2022-07-22T18:47:57;6.68;;;4.45;;
25609;SDS011;13479;49.044;8.716;2022-07-22T18:50:23;6.47;;;4.10;;
25609;SDS011;13479;49.044;8.716;2022-07-22T18:52:50;7.28;;;4.82;;
25609;SDS011;13479;49.044;8.716;2022-07-22T18:55:16;7.18;;;4.35;;
25609;SDS011;13479;49.044;8.716;2022-07-22T18:57:43;5.22;;;4.20;;
25609;SDS011;13479;49.044;8.716;2022-07-22T19:00:08;6.00;;;4.57;;
25609;SDS011;13479;49.044;8.716;2022-07-22T19:02:34;10.80;;;4.38;;
25609;SDS011;13479;49.044;8.716;2022-07-22T19:04:59;5.50;;;4.10;;
25609;SDS011;13479;49.044;8.716;2022-07-22T19:07:25;7.70;;;4.20;;
25609;SDS011;13479;49.044;8.716;2022-07-22T19:09:50;6.50;;;4.18;;
25609;SDS011;13479;49.044;8.716;2022-07-22T19:12:16;7.40;;;4.32;;
25609;SDS011;13479;49.044;8.716;2022-07-22T19:14:42;6.18;;;4.60;;
25609;SDS011;13479;49.044;8.716;2022-07-22T19:17:07;6.78;;;4.60;;
25609;SDS011;13479;49.044;8.716;2022-07-22T19:19:34;7.55;;;5.05;;
25609;SDS011;13479;49.044;8.716;2022-07-22T19:21:59;7.43;;;4.63;;